Time;durP1;ratioP1;P1;durP2;ratioP2;P2;SDS_P1;SDS_P2;PMS_P1;PMS_P2;Temp;Humidity;BMP_temperature;BMP_pressure;BME280_temperature;BME280_humidity;BME280_pressure;Samples;Min_cycle;Max_cycle;Signal;HPM_P1;HPM_P2
2024/04/04 00:02:06;;;;;;;1.13;1.13;;;;;;;;;;4984489;28;20850;-74
2024/04/04 00:04:32;;;;;;;1.08;1.00;;;;;;;;;;5003551;28;20122;-74
2024/04/04 00:06:58;;;;;;;1.20;1.20;;;;;;;;;;5002606;28;20204;-73
2024/04/04 00:09:24;;;;;;;0.90;0.90;;;;;;;;;;5004184;28;20090;-74
2024/04/04 00:11:53;;;;;;;1.30;1.17;;;;;;;;;;4989877;28;20113;-74
2024/04/04 00:14:19;;;;;;;1.33;1.13;;;;;;;;;;4988420;28;20125;-74
2024/04/04 00:16:45;;;;;;;0.88;0.88;;;;;;;;;;4987037;28;20133;-75
2024/04/04 00:19:11;;;;;;;1.20;1.20;;;;;;;;;;4988953;28;20125;-74
2024/04/04 00:21:37;;;;;;;0.70;0.70;;;;;;;;;;4988480;28;20126;-74
2024/04/04 00:24:03;;;;;;;0.90;0.90;;;;;;;;;;4988845;28;20077;-74
2024/04/04 00:26:28;;;;;;;1.00;1.00;;;;;;;;;;4987400;28;20515;-74
2024/04/04 00:28:54;;;;;;;0.90;0.90;;;;;;;;;;4987861;28;20081;-74
2024/04/04 00:31:20;;;;;;;1.15;1.15;;;;;;;;;;4988357;28;20045;-74
2024/04/04 00:33:46;;;;;;;1.80;1.08;;;;;;;;;;4988540;28;20069;-73
2024/04/04 00:36:13;;;;;;;1.10;1.10;;;;;;;;;;4986606;28;20050;-73
2024/04/04 00:38:39;;;;;;;1.08;1.08;;;;;;;;;;4988629;28;20030;-75
2024/04/04 00:41:05;;;;;;;1.40;1.38;;;;;;;;;;4989640;28;20049;-74
2024/04/04 00:43:31;;;;;;;1.35;1.35;;;;;;;;;;4988411;28;20037;-74
2024/04/04 00:45:57;;;;;;;1.10;1.10;;;;;;;;;;4987672;28;20034;-73
2024/04/04 00:48:24;;;;;;;1.35;1.35;;;;;;;;;;5003195;28;20042;-73
2024/04/04 00:50:49;;;;;;;1.60;1.15;;;;;;;;;;4971843;28;20608;-74
2024/04/04 00:53:15;;;;;;;1.40;1.30;;;;;;;;;;4992311;28;20065;-74
2024/04/04 00:55:41;;;;;;;1.50;1.50;;;;;;;;;;4990801;28;20075;-74
2024/04/04 00:58:07;;;;;;;1.45;1.35;;;;;;;;;;4990522;28;20592;-74
2024/04/04 01:00:33;;;;;;;1.38;1.30;;;;;;;;;;4990384;28;20030;-74
2024/04/04 01:02:59;;;;;;;1.02;1.02;;;;;;;;;;4993036;28;20026;-74
2024/04/04 01:05:25;;;;;;;1.08;1.08;;;;;;;;;;4989543;28;20097;-75
2024/04/04 01:07:50;;;;;;;1.50;1.15;;;;;;;;;;4974221;28;20469;-74
2024/04/04 01:10:19;;;;;;;1.23;1.23;;;;;;;;;;4991328;28;20050;-74
2024/04/04 01:12:44;;;;;;;1.30;1.30;;;;;;;;;;4987367;28;20039;-74
2024/04/04 01:15:10;;;;;;;1.67;1.10;;;;;;;;;;4991151;28;22400;-74
2024/04/04 01:17:36;;;;;;;2.03;1.38;;;;;;;;;;4991089;28;20034;-74
2024/04/04 01:20:03;;;;;;;1.30;1.30;;;;;;;;;;4990925;28;20088;-74
2024/04/04 01:22:30;;;;;;;1.35;1.25;;;;;;;;;;4989902;28;20066;-74
2024/04/04 01:24:55;;;;;;;1.10;1.10;;;;;;;;;;4989355;28;20061;-73
2024/04/04 01:27:21;;;;;;;1.20;1.08;;;;;;;;;;4989884;28;20184;-74
2024/04/04 01:29:48;;;;;;;0.90;0.90;;;;;;;;;;4992447;28;20031;-74
2024/04/04 01:32:13;;;;;;;1.20;1.20;;;;;;;;;;4990057;28;20045;-73
2024/04/04 01:34:39;;;;;;;1.10;1.10;;;;;;;;;;4990080;28;20034;-73
2024/04/04 01:37:05;;;;;;;1.38;1.27;;;;;;;;;;4989519;28;20042;-74
2024/04/04 01:39:31;;;;;;;1.10;1.10;;;;;;;;;;4989663;28;20097;-74
2024/04/04 01:41:57;;;;;;;1.10;1.10;;;;;;;;;;4990484;28;20561;-74
2024/04/04 01:44:23;;;;;;;0.88;0.88;;;;;;;;;;4989619;28;20034;-74
2024/04/04 01:46:49;;;;;;;0.90;0.90;;;;;;;;;;4988889;28;20081;-73
2024/04/04 01:49:16;;;;;;;1.10;1.10;;;;;;;;;;4989736;28;20037;-73
2024/04/04 01:51:43;;;;;;;0.82;0.82;;;;;;;;;;5006134;28;20506;-73
2024/04/04 01:54:12;;;;;;;1.00;1.00;;;;;;;;;;4990397;28;20418;-74
2024/04/04 01:56:38;;;;;;;1.02;1.02;;;;;;;;;;4989102;28;20049;-75
2024/04/04 01:59:04;;;;;;;1.13;1.02;;;;;;;;;;4989587;28;20050;-74
2024/04/04 02:01:30;;;;;;;1.02;1.02;;;;;;;;;;4988165;28;20041;-74
2024/04/04 02:03:56;;;;;;;1.30;1.15;;;;;;;;;;4989763;28;20130;-74
2024/04/04 02:06:22;;;;;;;1.30;1.30;;;;;;;;;;4984762;28;20042;-74
2024/04/04 02:08:47;;;;;;;1.27;1.20;;;;;;;;;;4990361;28;20046;-74
2024/04/04 02:11:14;;;;;;;1.15;1.15;;;;;;;;;;4990578;28;20038;-73
2024/04/04 02:13:39;;;;;;;1.27;0.88;;;;;;;;;;4989049;28;20037;-74
2024/04/04 02:16:06;;;;;;;2.08;1.50;;;;;;;;;;4988605;28;20043;-75
2024/04/04 02:18:32;;;;;;;1.25;1.15;;;;;;;;;;4989419;28;20426;-75
2024/04/04 02:20:58;;;;;;;2.28;1.50;;;;;;;;;;4988566;28;20074;-73
2024/04/04 02:23:23;;;;;;;0.88;0.88;;;;;;;;;;4989749;28;20549;-74
2024/04/04 02:25:49;;;;;;;1.48;1.40;;;;;;;;;;4988643;28;20053;-73
2024/04/04 02:28:15;;;;;;;2.42;1.10;;;;;;;;;;4989466;28;20042;-73
2024/04/04 02:30:41;;;;;;;1.08;1.08;;;;;;;;;;4986670;28;20541;-74
2024/04/04 02:33:07;;;;;;;1.20;1.20;;;;;;;;;;4987124;28;20050;-73
2024/04/04 02:35:33;;;;;;;1.20;1.20;;;;;;;;;;4989113;28;20042;-74
2024/04/04 02:38:01;;;;;;;1.17;1.17;;;;;;;;;;4990760;28;20455;-74
2024/04/04 02:40:27;;;;;;;1.60;1.20;;;;;;;;;;4973309;28;20469;-74
2024/04/04 02:42:53;;;;;;;1.50;1.50;;;;;;;;;;5005467;28;20037;-73
2024/04/04 02:45:22;;;;;;;1.70;1.40;;;;;;;;;;4989384;28;20047;-74
2024/04/04 02:47:48;;;;;;;1.17;1.17;;;;;;;;;;4989148;28;20038;-74
2024/04/04 02:50:14;;;;;;;1.20;1.20;;;;;;;;;;5007113;28;20063;-74
2024/04/04 02:52:40;;;;;;;1.20;1.20;;;;;;;;;;4975486;28;20121;-74
2024/04/04 02:55:06;;;;;;;1.00;1.00;;;;;;;;;;4973709;28;20034;-73
2024/04/04 02:57:32;;;;;;;1.30;1.30;;;;;;;;;;5008096;28;20046;-75
2024/04/04 02:59:58;;;;;;;1.20;1.20;;;;;;;;;;5010823;28;20057;-74
2024/04/04 03:02:25;;;;;;;2.17;1.40;;;;;;;;;;4993538;28;20088;-73
2024/04/04 03:04:51;;;;;;;1.50;1.40;;;;;;;;;;4975454;28;20038;-72
2024/04/04 03:07:17;;;;;;;1.45;1.45;;;;;;;;;;4987330;28;20128;-72
2024/04/04 03:09:43;;;;;;;1.10;1.10;;;;;;;;;;4978534;28;20138;-74
2024/04/04 03:12:09;;;;;;;1.10;1.10;;;;;;;;;;5003662;28;20129;-73
2024/04/04 03:14:35;;;;;;;1.10;1.10;;;;;;;;;;5003921;28;20030;-74
2024/04/04 03:17:01;;;;;;;1.15;1.15;;;;;;;;;;4987808;28;20489;-74
2024/04/04 03:19:27;;;;;;;1.30;1.30;;;;;;;;;;4988135;28;20109;-74
2024/04/04 03:21:53;;;;;;;1.40;1.40;;;;;;;;;;4989434;28;20494;-74
2024/04/04 03:24:18;;;;;;;1.52;1.42;;;;;;;;;;4988287;28;20045;-74
2024/04/04 03:26:45;;;;;;;1.58;1.58;;;;;;;;;;4986659;28;20434;-73
2024/04/04 03:29:10;;;;;;;1.02;1.02;;;;;;;;;;4989504;28;20134;-74
2024/04/04 03:31:37;;;;;;;1.00;1.00;;;;;;;;;;4987468;28;20062;-73
2024/04/04 03:34:03;;;;;;;4.32;1.48;;;;;;;;;;4989712;28;20049;-74
2024/04/04 03:36:29;;;;;;;2.15;1.55;;;;;;;;;;4985217;28;20105;-74
2024/04/04 03:38:55;;;;;;;2.25;1.40;;;;;;;;;;5004152;28;20384;-75
2024/04/04 03:41:21;;;;;;;2.38;2.13;;;;;;;;;;4986828;28;20121;-74
2024/04/04 03:43:47;;;;;;;1.90;1.80;;;;;;;;;;4988809;28;20113;-74
2024/04/04 03:46:17;;;;;;;2.03;1.75;;;;;;;;;;4988271;28;20133;-74
2024/04/04 03:48:44;;;;;;;1.73;1.63;;;;;;;;;;4972328;28;20046;-74
2024/04/04 03:51:10;;;;;;;1.50;1.40;;;;;;;;;;4988032;28;20077;-74
2024/04/04 03:53:36;;;;;;;1.90;1.80;;;;;;;;;;4988779;28;20062;-74
2024/04/04 03:56:01;;;;;;;1.27;1.27;;;;;;;;;;4986861;28;20039;-74
2024/04/04 03:58:28;;;;;;;2.20;2.00;;;;;;;;;;4987770;28;20034;-73
2024/04/04 04:00:54;;;;;;;4.20;2.40;;;;;;;;;;4989254;28;20526;-73
2024/04/04 04:03:21;;;;;;;1.55;1.55;;;;;;;;;;4971327;28;20562;-74
2024/04/04 04:05:47;;;;;;;1.50;1.45;;;;;;;;;;5003775;28;20141;-74
2024/04/04 04:08:15;;;;;;;0.80;0.80;;;;;;;;;;5004592;28;20065;-74
2024/04/04 04:10:42;;;;;;;1.02;1.02;;;;;;;;;;4971822;28;20573;-74
2024/04/04 04:13:08;;;;;;;0.75;0.75;;;;;;;;;;4988614;28;20484;-73
2024/04/04 04:15:35;;;;;;;1.00;1.00;;;;;;;;;;4988083;28;20042;-74
2024/04/04 04:18:01;;;;;;;1.20;1.20;;;;;;;;;;4987163;28;20050;-74
2024/04/04 04:23:12;;;;;;;0.75;0.75;;;;;;;;;;4988504;28;20054;-72
2024/04/04 04:25:38;;;;;;;1.48;1.38;;;;;;;;;;4989013;28;20046;-74
2024/04/04 04:28:05;;;;;;;1.58;1.52;;;;;;;;;;4989329;28;20053;-72
2024/04/04 04:30:31;;;;;;;1.63;1.52;;;;;;;;;;4989371;28;20030;-73
2024/04/04 04:32:57;;;;;;;2.65;2.15;;;;;;;;;;5008104;28;20085;-72
2024/04/04 04:35:23;;;;;;;1.80;1.70;;;;;;;;;;4990339;28;20038;-73
2024/04/04 04:37:50;;;;;;;1.40;1.38;;;;;;;;;;4990685;28;20034;-72
2024/04/04 04:40:16;;;;;;;1.70;1.20;;;;;;;;;;5005476;28;20058;-72
2024/04/04 04:42:44;;;;;;;1.55;1.45;;;;;;;;;;4984977;28;20122;-75
2024/04/04 04:45:11;;;;;;;4.05;1.60;;;;;;;;;;4984202;28;20042;-74
2024/04/04 04:47:37;;;;;;;1.73;1.63;;;;;;;;;;4990559;28;20513;-73
2024/04/04 04:50:03;;;;;;;2.95;2.65;;;;;;;;;;4993187;28;20133;-74
2024/04/04 04:52:29;;;;;;;1.48;1.38;;;;;;;;;;4990559;28;20418;-73
2024/04/04 04:54:55;;;;;;;1.50;1.40;;;;;;;;;;4990386;28;20042;-74
2024/04/04 04:57:21;;;;;;;1.67;1.58;;;;;;;;;;4992120;28;20042;-74
2024/04/04 04:59:47;;;;;;;1.30;1.20;;;;;;;;;;5006557;28;20034;-74
2024/04/04 05:02:16;;;;;;;1.10;1.10;;;;;;;;;;4992089;28;20710;-74
2024/04/04 05:07:28;;;;;;;1.30;1.30;;;;;;;;;;4989763;28;20054;-73
2024/04/04 05:09:58;;;;;;;1.10;1.10;;;;;;;;;;4992366;28;20053;-74
2024/04/04 05:12:24;;;;;;;1.70;1.60;;;;;;;;;;4991381;28;20560;-73
2024/04/04 05:14:50;;;;;;;1.50;1.40;;;;;;;;;;4983218;28;20042;-73
2024/04/04 05:17:16;;;;;;;1.25;1.25;;;;;;;;;;4989930;28;20042;-74
2024/04/04 05:19:42;;;;;;;2.95;0.90;;;;;;;;;;4984834;28;20522;-74
2024/04/04 05:22:08;;;;;;;1.50;1.40;;;;;;;;;;4985244;28;20610;-74
2024/04/04 05:24:34;;;;;;;1.25;1.25;;;;;;;;;;4989687;28;20066;-74
2024/04/04 05:27:00;;;;;;;1.40;1.40;;;;;;;;;;4990780;28;20590;-74
2024/04/04 05:29:26;;;;;;;2.20;1.70;;;;;;;;;;5005818;28;20133;-74
2024/04/04 05:31:51;;;;;;;1.58;1.48;;;;;;;;;;5005749;28;20030;-74
2024/04/04 05:34:17;;;;;;;1.50;1.50;;;;;;;;;;4990667;28;20041;-73
2024/04/04 05:36:43;;;;;;;1.70;1.60;;;;;;;;;;4988227;28;20042;-74
2024/04/04 05:39:09;;;;;;;1.40;1.40;;;;;;;;;;4989081;28;20041;-73
2024/04/04 05:41:35;;;;;;;1.40;1.40;;;;;;;;;;4989046;28;20033;-74
2024/04/04 05:44:01;;;;;;;1.33;1.33;;;;;;;;;;4990916;28;20030;-74
2024/04/04 05:46:27;;;;;;;1.55;1.55;;;;;;;;;;4988556;28;20042;-75
2024/04/04 05:48:53;;;;;;;1.60;1.50;;;;;;;;;;4974320;28;20530;-76
2024/04/04 05:51:19;;;;;;;1.40;1.30;;;;;;;;;;4990989;28;20460;-76
2024/04/04 05:53:45;;;;;;;1.38;1.35;;;;;;;;;;4992633;28;20112;-75
2024/04/04 05:56:10;;;;;;;4.07;2.47;;;;;;;;;;4996829;28;20042;-82
2024/04/04 05:58:36;;;;;;;1.75;1.65;;;;;;;;;;4996528;28;20034;-80
2024/04/04 06:01:02;;;;;;;1.27;1.17;;;;;;;;;;4993057;28;20600;-81
2024/04/04 06:03:28;;;;;;;1.50;1.50;;;;;;;;;;4988446;28;20037;-73
2024/04/04 06:05:54;;;;;;;1.98;1.80;;;;;;;;;;4989157;28;20577;-76
2024/04/04 06:08:20;;;;;;;1.17;1.17;;;;;;;;;;4989166;28;20479;-74
2024/04/04 06:10:45;;;;;;;3.00;1.60;;;;;;;;;;4988260;28;20574;-75
2024/04/04 06:13:11;;;;;;;1.40;1.40;;;;;;;;;;4988239;28;20129;-74
2024/04/04 06:15:37;;;;;;;1.00;1.00;;;;;;;;;;4987061;28;20053;-74
2024/04/04 06:18:03;;;;;;;2.20;1.38;;;;;;;;;;4987203;28;20654;-76
2024/04/04 06:20:29;;;;;;;1.67;1.58;;;;;;;;;;4988746;28;20057;-74
2024/04/04 06:22:55;;;;;;;2.70;1.13;;;;;;;;;;4989086;28;20113;-75
2024/04/04 06:25:20;;;;;;;1.83;1.65;;;;;;;;;;4971471;28;20038;-74
2024/04/04 06:27:46;;;;;;;1.30;1.20;;;;;;;;;;4973052;28;20042;-75
2024/04/04 06:30:12;;;;;;;0.82;0.82;;;;;;;;;;4990165;28;20065;-74
2024/04/04 06:32:38;;;;;;;0.98;0.98;;;;;;;;;;4988799;28;20030;-74
2024/04/04 06:35:04;;;;;;;4.00;1.10;;;;;;;;;;4986193;28;20042;-74
2024/04/04 06:37:30;;;;;;;1.02;1.00;;;;;;;;;;4987540;28;20034;-74
2024/04/04 06:39:56;;;;;;;0.95;0.95;;;;;;;;;;4990284;28;20030;-74
2024/04/04 06:42:22;;;;;;;1.27;1.15;;;;;;;;;;4985812;28;20570;-74
2024/04/04 06:44:48;;;;;;;1.17;1.17;;;;;;;;;;5003931;28;20033;-74
2024/04/04 06:47:13;;;;;;;2.40;1.55;;;;;;;;;;4983812;28;20529;-78
2024/04/04 06:49:39;;;;;;;0.93;0.93;;;;;;;;;;4971341;28;20026;-74
2024/04/04 06:52:06;;;;;;;0.98;0.98;;;;;;;;;;4988035;28;20497;-78
2024/04/04 06:54:31;;;;;;;1.08;1.08;;;;;;;;;;4987778;28;20023;-77
2024/04/04 06:56:57;;;;;;;0.95;0.93;;;;;;;;;;4986132;28;20049;-78
2024/04/04 06:59:23;;;;;;;0.82;0.82;;;;;;;;;;4985821;28;20413;-79
2024/04/04 07:01:49;;;;;;;0.80;0.80;;;;;;;;;;4988537;28;20041;-75
2024/04/04 07:04:15;;;;;;;0.85;0.80;;;;;;;;;;4988318;28;20038;-74
2024/04/04 07:06:41;;;;;;;0.70;0.70;;;;;;;;;;4987919;28;20050;-76
2024/04/04 07:09:06;;;;;;;1.10;1.00;;;;;;;;;;4988709;28;20112;-77
2024/04/04 07:11:32;;;;;;;1.65;1.58;;;;;;;;;;4989349;28;20038;-77
2024/04/04 07:13:58;;;;;;;1.15;1.05;;;;;;;;;;4988206;28;20026;-77
2024/04/04 07:16:25;;;;;;;0.82;0.82;;;;;;;;;;5003008;28;20042;-76
2024/04/04 07:18:51;;;;;;;1.95;1.20;;;;;;;;;;5003560;28;20022;-74
2024/04/04 07:21:17;;;;;;;1.58;1.00;;;;;;;;;;4987572;28;20426;-76
2024/04/04 07:23:43;;;;;;;1.10;1.10;;;;;;;;;;4987725;28;20038;-77
2024/04/04 07:26:08;;;;;;;1.85;1.00;;;;;;;;;;4986590;28;20042;-74
2024/04/04 07:28:34;;;;;;;1.10;1.10;;;;;;;;;;4988276;28;20057;-78
2024/04/04 07:31:00;;;;;;;1.05;1.00;;;;;;;;;;4990384;28;20109;-78
2024/04/04 07:33:26;;;;;;;0.88;0.88;;;;;;;;;;4989954;28;20072;-78
2024/04/04 07:35:52;;;;;;;2.58;1.00;;;;;;;;;;4988655;28;20109;-77
2024/04/04 07:38:18;;;;;;;1.35;1.25;;;;;;;;;;4990041;28;20493;-77
2024/04/04 07:40:46;;;;;;;3.22;1.30;;;;;;;;;;4990418;28;20062;-78
2024/04/04 07:43:12;;;;;;;1.05;1.05;;;;;;;;;;4988971;28;20089;-79
2024/04/04 07:45:41;;;;;;;1.40;1.13;;;;;;;;;;4987909;28;20412;-74
2024/04/04 07:48:08;;;;;;;1.77;0.88;;;;;;;;;;4986746;28;20052;-76
2024/04/04 07:50:34;;;;;;;1.10;0.90;;;;;;;;;;4988713;28;20042;-75
2024/04/04 07:53:00;;;;;;;0.70;0.70;;;;;;;;;;4987664;28;20038;-74
2024/04/04 07:55:26;;;;;;;0.90;0.90;;;;;;;;;;4987791;28;20105;-74
2024/04/04 07:57:52;;;;;;;1.50;0.82;;;;;;;;;;4986857;28;20038;-76
2024/04/04 08:00:18;;;;;;;3.45;1.00;;;;;;;;;;4991669;28;20805;-75
2024/04/04 08:02:45;;;;;;;0.63;0.63;;;;;;;;;;4997855;28;20044;-75
2024/04/04 08:05:10;;;;;;;0.90;0.90;;;;;;;;;;4996525;28;20046;-74
2024/04/04 08:07:36;;;;;;;0.70;0.70;;;;;;;;;;4997824;28;20046;-80
2024/04/04 08:10:06;;;;;;;0.90;0.90;;;;;;;;;;4995910;28;20054;-81
2024/04/04 08:12:34;;;;;;;1.00;1.00;;;;;;;;;;4998880;28;20042;-79
2024/04/04 08:15:03;;;;;;;1.88;1.23;;;;;;;;;;4993282;28;20514;-79
2024/04/04 08:17:32;;;;;;;1.00;1.00;;;;;;;;;;4995214;28;20069;-80
2024/04/04 08:19:58;;;;;;;3.30;1.52;;;;;;;;;;4995306;28;20060;-80
2024/04/04 08:22:24;;;;;;;1.13;1.13;;;;;;;;;;4993126;28;20065;-79
2024/04/04 08:24:51;;;;;;;1.00;1.00;;;;;;;;;;4994452;28;20065;-80
2024/04/04 08:27:20;;;;;;;1.30;1.30;;;;;;;;;;4992646;28;20060;-80
2024/04/04 08:29:49;;;;;;;2.00;1.50;;;;;;;;;;4961490;28;20573;-78
2024/04/04 08:32:16;;;;;;;1.50;1.20;;;;;;;;;;4996566;28;20048;-79
2024/04/04 08:34:42;;;;;;;1.83;1.55;;;;;;;;;;4994856;28;20088;-78
2024/04/04 08:37:08;;;;;;;1.13;1.13;;;;;;;;;;4993048;28;20054;-80
2024/04/04 08:39:34;;;;;;;1.38;1.27;;;;;;;;;;4993390;28;20230;-80
2024/04/04 08:42:00;;;;;;;0.95;0.95;;;;;;;;;;4996232;28;20075;-78
2024/04/04 08:44:27;;;;;;;1.40;1.30;;;;;;;;;;4978794;28;20034;-80
2024/04/04 08:46:53;;;;;;;1.58;1.48;;;;;;;;;;4996043;28;20264;-80
2024/04/04 08:49:19;;;;;;;1.88;1.38;;;;;;;;;;4996939;28;20210;-80
2024/04/04 08:51:46;;;;;;;1.33;1.33;;;;;;;;;;4996364;28;20030;-78
2024/04/04 08:54:13;;;;;;;1.33;1.33;;;;;;;;;;4994424;28;20034;-79
2024/04/04 08:56:40;;;;;;;1.50;1.40;;;;;;;;;;4993828;28;20073;-80
2024/04/04 08:59:06;;;;;;;1.10;1.10;;;;;;;;;;4995142;28;20486;-79
2024/04/04 09:01:32;;;;;;;1.83;1.23;;;;;;;;;;4994822;28;20025;-79
2024/04/04 09:03:57;;;;;;;1.58;1.30;;;;;;;;;;5009068;28;20042;-79
2024/04/04 09:06:24;;;;;;;0.98;0.98;;;;;;;;;;4995503;28;20039;-79
2024/04/04 09:08:54;;;;;;;1.60;1.48;;;;;;;;;;4994720;28;20082;-79
2024/04/04 09:11:26;;;;;;;1.50;1.40;;;;;;;;;;4993865;28;20054;-80
2024/04/04 09:14:02;;;;;;;2.92;1.20;;;;;;;;;;4994177;28;20057;-80
2024/04/04 09:16:28;;;;;;;1.45;1.40;;;;;;;;;;4978453;28;20486;-80
2024/04/04 09:18:54;;;;;;;4.22;1.88;;;;;;;;;;5011288;28;20069;-81
2024/04/04 09:21:20;;;;;;;5.47;1.27;;;;;;;;;;4995740;28;20117;-78
2024/04/04 09:23:46;;;;;;;8.77;1.33;;;;;;;;;;4993602;28;20038;-80
2024/04/04 09:26:12;;;;;;;1.40;1.30;;;;;;;;;;4991113;28;20052;-81
2024/04/04 09:28:38;;;;;;;2.97;1.38;;;;;;;;;;4990291;28;20038;-79
2024/04/04 09:31:07;;;;;;;4.60;1.48;;;;;;;;;;4991560;28;20076;-80
2024/04/04 09:33:33;;;;;;;1.35;1.35;;;;;;;;;;4992172;28;20054;-80
2024/04/04 09:35:59;;;;;;;1.20;1.10;;;;;;;;;;4993781;28;20042;-79
2024/04/04 09:38:25;;;;;;;1.60;1.50;;;;;;;;;;4991448;28;20070;-80
2024/04/04 09:40:51;;;;;;;1.17;1.10;;;;;;;;;;4990086;28;20053;-79
2024/04/04 09:43:17;;;;;;;1.70;1.60;;;;;;;;;;4990284;28;20058;-79
2024/04/04 09:45:43;;;;;;;1.10;1.10;;;;;;;;;;5006240;28;20101;-79
2024/04/04 09:48:09;;;;;;;0.88;0.88;;;;;;;;;;4992428;28;20096;-78
2024/04/04 09:50:35;;;;;;;1.10;1.10;;;;;;;;;;4991464;28;20030;-79
2024/04/04 09:53:02;;;;;;;0.75;0.75;;;;;;;;;;4991776;28;20034;-79
2024/04/04 09:55:28;;;;;;;1.20;1.20;;;;;;;;;;4989544;28;20046;-79
2024/04/04 09:57:56;;;;;;;2.20;1.10;;;;;;;;;;4990421;28;20053;-80
2024/04/04 10:00:27;;;;;;;1.10;1.10;;;;;;;;;;4991581;28;20054;-80
2024/04/04 10:03:00;;;;;;;;;;;;;;;;;;4992701;28;20053;-79
2024/04/04 10:05:36;;;;;;;1.20;1.15;;;;;;;;;;4991577;28;20386;-78
2024/04/04 10:08:09;;;;;;;1.00;1.00;;;;;;;;;;4991190;28;20042;-79
2024/04/04 10:10:35;;;;;;;1.30;1.30;;;;;;;;;;4990318;28;20057;-80
2024/04/04 10:13:08;;;;;;;2.75;1.50;;;;;;;;;;4989302;28;20134;-78
2024/04/04 10:15:44;;;;;;;2.85;2.17;;;;;;;;;;4990355;28;20494;-80
2024/04/04 10:18:10;;;;;;;1.40;1.25;;;;;;;;;;4987986;28;20042;-78
2024/04/04 10:20:42;;;;;;;1.25;1.17;;;;;;;;;;4991506;28;20050;-79
2024/04/04 10:23:13;;;;;;;1.75;1.42;;;;;;;;;;4989018;28;20425;-79
2024/04/04 10:25:42;;;;;;;3.33;1.13;;;;;;;;;;4985952;28;20125;-79
2024/04/04 10:28:08;;;;;;;0.90;0.90;;;;;;;;;;4985325;28;20058;-80
2024/04/04 10:30:37;;;;;;;1.33;0.95;;;;;;;;;;4991173;28;20037;-80
2024/04/04 10:33:11;;;;;;;1.40;1.30;;;;;;;;;;4991266;28;20037;-80
2024/04/04 10:35:38;;;;;;;1.48;1.38;;;;;;;;;;5005494;28;20039;-79
2024/04/04 10:38:10;;;;;;;4.22;1.65;;;;;;;;;;4989989;28;20042;-79
2024/04/04 10:40:36;;;;;;;2.10;1.33;;;;;;;;;;4989670;28;20022;-79
2024/04/04 10:43:03;;;;;;;2.00;1.90;;;;;;;;;;4987820;28;20108;-80
2024/04/04 10:45:29;;;;;;;1.75;1.30;;;;;;;;;;4971517;28;20038;-79
2024/04/04 10:47:58;;;;;;;1.70;1.60;;;;;;;;;;4986696;28;20082;-80
2024/04/04 10:50:27;;;;;;;1.45;1.35;;;;;;;;;;4988310;28;20030;-80
2024/04/04 10:52:53;;;;;;;3.22;1.30;;;;;;;;;;4989776;28;20592;-80
2024/04/04 10:55:19;;;;;;;2.53;1.63;;;;;;;;;;4989997;28;20070;-79
2024/04/04 10:57:50;;;;;;;1.70;1.60;;;;;;;;;;4990011;28;20503;-79
2024/04/04 11:00:19;;;;;;;3.28;1.88;;;;;;;;;;4990043;28;20045;-80
2024/04/04 11:02:48;;;;;;;1.95;1.40;;;;;;;;;;4991636;28;20023;-80
2024/04/04 11:05:14;;;;;;;2.05;1.65;;;;;;;;;;4989104;28;20533;-80
2024/04/04 11:07:42;;;;;;;0.98;0.98;;;;;;;;;;4989365;28;20479;-80
2024/04/04 11:10:09;;;;;;;3.13;1.63;;;;;;;;;;4988204;28;20069;-79
2024/04/04 11:12:39;;;;;;;3.63;1.98;;;;;;;;;;4991404;28;20042;-79
2024/04/04 11:15:05;;;;;;;1.30;1.30;;;;;;;;;;4990518;28;20043;-82
2024/04/04 11:17:34;;;;;;;2.05;1.80;;;;;;;;;;4990688;28;20129;-79
2024/04/04 11:20:08;;;;;;;5.70;2.78;;;;;;;;;;4985912;28;20027;-79
2024/04/04 11:22:34;;;;;;;1.40;1.30;;;;;;;;;;4980226;28;20971;-80
2024/04/04 11:25:01;;;;;;;1.20;1.20;;;;;;;;;;4988904;28;20033;-80
2024/04/04 11:27:27;;;;;;;2.88;1.33;;;;;;;;;;4990088;28;20217;-79
2024/04/04 11:29:53;;;;;;;4.07;1.42;;;;;;;;;;4990918;28;20057;-79
2024/04/04 11:32:19;;;;;;;1.13;1.08;;;;;;;;;;4988007;28;20068;-78
2024/04/04 11:34:45;;;;;;;1.23;1.23;;;;;;;;;;4984909;28;20089;-80
2024/04/04 11:37:11;;;;;;;1.10;1.10;;;;;;;;;;4984981;28;20145;-80
2024/04/04 11:39:37;;;;;;;1.60;1.60;;;;;;;;;;4990254;28;20515;-80
2024/04/04 11:42:04;;;;;;;1.42;1.42;;;;;;;;;;4986353;28;20039;-80
2024/04/04 11:44:29;;;;;;;1.10;1.10;;;;;;;;;;4988455;28;20034;-78
2024/04/04 11:46:55;;;;;;;2.83;1.20;;;;;;;;;;4987293;28;20068;-79
2024/04/04 11:49:22;;;;;;;1.30;1.30;;;;;;;;;;4990207;28;20042;-81
2024/04/04 11:51:48;;;;;;;1.10;1.10;;;;;;;;;;4988730;28;20549;-79
2024/04/04 11:54:14;;;;;;;1.88;1.27;;;;;;;;;;4972139;28;20752;-79
2024/04/04 11:56:39;;;;;;;0.60;0.60;;;;;;;;;;4989526;28;20031;-80
2024/04/04 11:59:06;;;;;;;1.30;1.17;;;;;;;;;;4989103;28;20459;-79
2024/04/04 12:01:32;;;;;;;1.17;1.17;;;;;;;;;;4987433;28;20022;-79
2024/04/04 12:03:58;;;;;;;3.30;1.30;;;;;;;;;;4988065;28;20415;-80
2024/04/04 12:06:24;;;;;;;2.60;1.55;;;;;;;;;;4988967;28;20133;-79
2024/04/04 12:08:50;;;;;;;3.60;1.20;;;;;;;;;;4990215;28;20569;-79
2024/04/04 12:11:16;;;;;;;1.92;1.58;;;;;;;;;;4988977;28;20065;-79
2024/04/04 12:13:42;;;;;;;1.77;1.67;;;;;;;;;;4984831;28;20039;-79
2024/04/04 12:16:08;;;;;;;2.05;1.95;;;;;;;;;;4982457;28;20043;-80
2024/04/04 12:21:19;;;;;;;2.55;1.90;;;;;;;;;;4988658;28;20037;-79
2024/04/04 12:23:48;;;;;;;3.92;2.33;;;;;;;;;;4988248;28;20105;-79
2024/04/04 12:26:13;;;;;;;3.58;3.30;;;;;;;;;;4988257;28;20133;-79
2024/04/04 12:28:41;;;;;;;6.45;4.10;;;;;;;;;;4988725;28;20464;-80
2024/04/04 12:31:07;;;;;;;5.75;4.50;;;;;;;;;;4990596;28;20542;-80
2024/04/04 12:33:32;;;;;;;5.20;4.03;;;;;;;;;;5004451;28;20038;-79
2024/04/04 12:35:58;;;;;;;5.57;4.25;;;;;;;;;;4987458;28;20038;-79
2024/04/04 12:38:24;;;;;;;5.18;4.00;;;;;;;;;;4989576;28;20053;-80
2024/04/04 12:40:50;;;;;;;8.35;4.28;;;;;;;;;;4990537;28;20033;-78
2024/04/04 12:43:16;;;;;;;5.25;4.05;;;;;;;;;;4987875;28;20449;-79
2024/04/04 12:45:42;;;;;;;3.92;3.72;;;;;;;;;;4990429;28;20133;-79
2024/04/04 12:48:08;;;;;;;5.80;3.17;;;;;;;;;;4993127;28;20426;-80
2024/04/04 12:50:34;;;;;;;3.10;2.90;;;;;;;;;;4993734;28;20035;-79
2024/04/04 12:53:00;;;;;;;3.08;2.80;;;;;;;;;;4991762;28;20499;-79
2024/04/04 12:55:26;;;;;;;4.70;2.72;;;;;;;;;;4990794;28;20035;-79
2024/04/04 12:57:52;;;;;;;3.47;3.17;;;;;;;;;;4994148;28;20034;-79
2024/04/04 13:00:18;;;;;;;5.55;4.60;;;;;;;;;;5007898;28;20411;-80
2024/04/04 13:02:44;;;;;;;11.77;4.38;;;;;;;;;;4993887;28;20899;-79
2024/04/04 13:05:10;;;;;;;3.47;3.13;;;;;;;;;;4991134;28;20050;-77
2024/04/04 13:07:37;;;;;;;4.03;3.70;;;;;;;;;;4993766;28;20073;-79
2024/04/04 13:10:03;;;;;;;4.75;3.35;;;;;;;;;;4995025;28;20487;-79
2024/04/04 13:12:29;;;;;;;3.75;3.40;;;;;;;;;;4994405;28;20517;-80
2024/04/04 13:14:55;;;;;;;10.50;4.63;;;;;;;;;;4993360;28;20027;-78
2024/04/04 13:17:21;;;;;;;4.93;3.28;;;;;;;;;;4995959;28;20431;-79
2024/04/04 13:19:47;;;;;;;5.93;3.38;;;;;;;;;;5014733;28;20094;-79
2024/04/04 13:22:13;;;;;;;3.80;3.40;;;;;;;;;;4987006;28;20034;-78
2024/04/04 13:24:39;;;;;;;8.40;4.00;;;;;;;;;;4986581;28;20127;-79
2024/04/04 13:27:05;;;;;;;5.30;4.90;;;;;;;;;;4988261;28;20050;-79
2024/04/04 13:29:31;;;;;;;7.70;4.88;;;;;;;;;;4989502;28;20030;-79
2024/04/04 13:31:57;;;;;;;4.60;3.85;;;;;;;;;;4987208;28;20108;-79
2024/04/04 13:34:25;;;;;;;4.20;3.90;;;;;;;;;;4989272;28;20034;-80
2024/04/04 13:36:51;;;;;;;2.88;2.67;;;;;;;;;;4968745;28;20050;-78
2024/04/04 13:39:17;;;;;;;7.15;3.40;;;;;;;;;;4986738;28;20074;-79
2024/04/04 13:41:43;;;;;;;4.00;3.60;;;;;;;;;;4990349;28;20065;-80
2024/04/04 13:44:11;;;;;;;6.50;3.08;;;;;;;;;;4989859;28;20034;-79
2024/04/04 13:46:40;;;;;;;4.00;3.55;;;;;;;;;;4984784;28;20419;-78
2024/04/04 13:49:07;;;;;;;8.77;3.72;;;;;;;;;;5001712;28;20050;-81
2024/04/04 13:51:33;;;;;;;4.13;3.72;;;;;;;;;;4983595;28;20035;-80
2024/04/04 13:53:59;;;;;;;4.93;4.28;;;;;;;;;;4981691;28;20515;-80
2024/04/04 13:56:25;;;;;;;7.40;3.72;;;;;;;;;;4980114;28;20109;-79
2024/04/04 13:58:50;;;;;;;4.45;3.20;;;;;;;;;;4989505;28;20419;-78
2024/04/04 14:01:16;;;;;;;5.43;3.42;;;;;;;;;;4978068;28;20062;-80
2024/04/04 14:03:42;;;;;;;5.00;2.90;;;;;;;;;;4981702;28;20061;-79
2024/04/04 14:06:08;;;;;;;5.82;3.72;;;;;;;;;;4979568;28;20125;-80
2024/04/04 14:08:34;;;;;;;7.10;2.65;;;;;;;;;;4982709;28;20070;-80
2024/04/04 14:11:00;;;;;;;5.80;3.92;;;;;;;;;;4982961;28;20050;-79
2024/04/04 14:13:27;;;;;;;3.70;3.40;;;;;;;;;;4977809;28;20041;-79
2024/04/04 14:15:52;;;;;;;3.97;2.67;;;;;;;;;;4981651;28;20053;-80
2024/04/04 14:18:19;;;;;;;3.45;3.15;;;;;;;;;;4982405;28;20043;-80
2024/04/04 14:20:45;;;;;;;5.38;3.60;;;;;;;;;;4982807;28;20034;-79
2024/04/04 14:23:12;;;;;;;3.35;3.05;;;;;;;;;;4979038;28;20042;-79
2024/04/04 14:25:37;;;;;;;3.42;2.92;;;;;;;;;;4984107;28;20034;-80
2024/04/04 14:28:03;;;;;;;7.45;4.95;;;;;;;;;;4980131;28;20097;-80
2024/04/04 14:30:29;;;;;;;2.58;2.38;;;;;;;;;;4984490;28;20100;-80
2024/04/04 14:32:57;;;;;;;3.85;2.58;;;;;;;;;;4976854;28;20045;-81
2024/04/04 14:35:23;;;;;;;3.47;3.17;;;;;;;;;;4968969;28;20050;-79
2024/04/04 14:37:50;;;;;;;3.80;2.78;;;;;;;;;;4982246;28;20038;-80
2024/04/04 14:40:16;;;;;;;10.90;3.20;;;;;;;;;;4982510;28;20050;-78
2024/04/04 14:42:43;;;;;;;8.65;2.80;;;;;;;;;;4986962;28;20038;-80
2024/04/04 14:45:11;;;;;;;5.00;3.28;;;;;;;;;;4982481;28;20510;-79
2024/04/04 14:47:40;;;;;;;3.92;3.40;;;;;;;;;;4939028;28;20432;-80